Time;durP1;ratioP1;P1;durP2;ratioP2;P2;SDS_P1;SDS_P2;PMS_P1;PMS_P2;Temp;Humidity;BMP_temperature;BMP_pressure;BME280_temperature;BME280_humidity;BME280_pressure;Samples;Min_cycle;Max_cycle;Signal;HPM_P1;HPM_P2
2021/06/01 06:44:01;;;;;;;2.22;1.10;;;;;;;12.88;60.77;98233.41;1857093;76;22296;-63
2021/06/01 06:46:35;;;;;;;3.42;1.35;;;;;;;12.90;60.20;98232.59;1852358;77;21515;-63
2021/06/01 06:48:59;;;;;;;5.50;1.90;;;;;;;12.97;58.93;98234.87;1841633;77;21484;-62
2021/06/01 06:51:26;;;;;;;6.97;1.40;;;;;;;13.02;58.54;98226.70;1856249;77;21541;-65
2021/06/01 06:53:56;;;;;;;4.95;1.32;;;;;;;13.13;57.93;98228.11;1844574;77;20953;-65
2021/06/01 06:56:28;;;;;;;6.60;1.67;;;;;;;13.25;57.48;98225.70;1859439;77;21127;-65
2021/06/01 06:58:57;;;;;;;5.00;1.75;;;;;;;13.44;57.48;98223.68;1840236;77;21013;-65
2021/06/01 07:01:25;;;;;;;4.22;1.40;;;;;;;13.68;57.19;98221.50;1826944;78;21067;-63
2021/06/01 07:03:53;;;;;;;2.20;1.37;;;;;;;13.93;54.92;98224.70;1826148;78;21134;-63
2021/06/01 07:06:22;;;;;;;4.15;1.82;;;;;;;14.14;55.26;98223.10;1827033;78;20969;-64
2021/06/01 07:08:52;;;;;;;6.03;1.90;;;;;;;14.29;54.37;98218.69;1826850;78;21357;-67
2021/06/01 07:11:20;;;;;;;3.12;1.30;;;;;;;14.34;54.65;98225.33;1827111;78;21336;-63
2021/06/01 07:13:53;;;;;;;2.33;1.30;;;;;;;14.32;54.36;98220.78;1827116;78;21059;-63
2021/06/01 07:16:21;;;;;;;7.72;1.75;;;;;;;14.27;54.51;98212.82;1827079;78;20850;-64
2021/06/01 07:18:48;;;;;;;6.67;1.75;;;;;;;14.20;54.25;98216.50;1838875;77;21292;-63
2021/06/01 07:21:19;;;;;;;2.08;1.17;;;;;;;14.06;53.67;98210.39;1858528;76;20937;-63
2021/06/01 07:23:49;;;;;;;2.55;1.35;;;;;;;13.97;53.92;98221.09;1860795;77;20972;-62
2021/06/01 07:26:18;;;;;;;6.97;1.30;;;;;;;13.92;53.58;98215.82;1859613;77;21032;-61
2021/06/01 07:28:51;;;;;;;3.25;1.40;;;;;;;13.93;53.67;98214.73;1859141;77;20988;-62
2021/06/01 07:31:21;;;;;;;8.93;1.30;;;;;;;13.99;53.28;98220.80;1851842;77;21518;-63
2021/06/01 07:33:51;;;;;;;2.55;1.02;;;;;;;14.07;52.36;98213.31;1859412;77;21407;-64
2021/06/01 07:36:22;;;;;;;7.05;1.20;;;;;;;14.22;52.13;98210.25;1790770;80;20849;-65
2021/06/01 07:38:51;;;;;;;4.95;1.15;;;;;;;14.43;51.14;98206.50;1799898;78;21102;-64
2021/06/01 07:41:18;;;;;;;2.83;1.35;;;;;;;14.58;49.04;98209.58;1789967;79;20953;-65
2021/06/01 07:43:46;;;;;;;3.55;1.25;;;;;;;14.59;48.40;98209.84;1797898;78;20922;-63
2021/06/01 07:46:16;;;;;;;7.42;1.47;;;;;;;14.61;48.41;98208.97;1807361;78;21515;-64
2021/06/01 07:48:47;;;;;;;3.50;1.50;;;;;;;14.65;48.29;98209.16;1776691;80;20942;-63
2021/06/01 07:51:27;;;;;;;4.62;1.40;;;;;;;14.70;47.59;98207.64;1777272;78;21033;-63
2021/06/01 07:53:52;;;;;;;3.72;1.52;;;;;;;14.72;46.99;98207.58;1776950;80;21001;-64
2021/06/01 07:56:42;;;;;;;3.70;1.50;;;;;;;14.77;47.84;98215.53;1799444;78;20989;-63
2021/06/01 07:59:12;;;;;;;2.60;1.37;;;;;;;14.77;47.84;98215.53;1713946;81;21387;-63
2021/06/01 08:01:42;;;;;;;5.85;1.42;;;;;;;14.81;46.31;98213.83;1720701;82;21456;-62
2021/06/01 08:04:09;;;;;;;4.87;1.50;;;;;;;14.87;46.50;98212.56;1748269;80;21086;-64
2021/06/01 08:06:37;;;;;;;2.75;1.20;;;;;;;14.96;46.31;98213.38;1736015;82;20931;-63
2021/06/01 08:09:06;;;;;;;5.15;1.60;;;;;;;14.95;46.25;98217.75;1801364;79;20947;-65
2021/06/01 08:11:35;;;;;;;2.55;1.32;;;;;;;14.85;46.91;98215.33;1801469;79;20894;-62
2021/06/01 08:14:03;;;;;;;3.87;1.47;;;;;;;14.78;47.71;98210.39;1801363;79;21017;-62
2021/06/01 08:16:32;;;;;;;2.95;1.70;;;;;;;14.75;48.07;98211.01;1787042;79;21060;-66
2021/06/01 08:19:21;;;;;;;1.85;1.30;;;;;;;14.73;48.02;98211.88;1772587;81;21515;-62
2021/06/01 08:24:39;;;;;;;8.95;1.30;;;;;;;14.82;48.02;98215.39;1764009;79;20962;-63
2021/06/01 08:27:06;;;;;;;1.72;1.20;;;;;;;14.88;46.51;98214.16;1785845;79;20970;-63
2021/06/01 08:29:33;;;;;;;4.65;1.15;;;;;;;14.89;45.74;98220.33;1757545;79;21063;-63
2021/06/01 08:32:00;;;;;;;3.10;1.37;;;;;;;14.96;45.92;98218.77;1778024;80;21390;-64
2021/06/01 08:34:28;;;;;;;4.35;1.10;;;;;;;15.13;45.15;98229.37;1766163;80;20938;-63
2021/06/01 08:36:56;;;;;;;3.45;1.30;;;;;;;15.25;44.71;98226.86;1777205;80;20866;-63
2021/06/01 08:39:31;;;;;;;2.37;1.20;;;;;;;15.28;44.66;98230.29;1742124;82;20893;-62
2021/06/01 08:42:02;;;;;;;6.50;1.22;;;;;;;15.27;44.27;98229.48;1740973;81;21025;-62
2021/06/01 08:44:30;;;;;;;5.22;1.30;;;;;;;15.24;45.01;98225.29;1741791;82;20938;-63
2021/06/01 08:46:59;;;;;;;3.12;1.20;;;;;;;15.26;44.83;98223.84;1742239;82;20950;-63
2021/06/01 08:49:26;;;;;;;2.83;1.20;;;;;;;15.28;45.08;98223.00;1742196;82;21421;-64
2021/06/01 08:51:53;;;;;;;2.42;1.27;;;;;;;15.43;44.22;98225.77;1750003;81;20895;-62
2021/06/01 08:54:20;;;;;;;4.22;1.20;;;;;;;15.55;43.72;98222.73;1773047;81;21648;-63
2021/06/01 08:56:47;;;;;;;5.65;1.10;;;;;;;15.66;43.84;98228.63;1772900;81;20990;-62
2021/06/01 08:59:15;;;;;;;3.70;1.30;;;;;;;15.74;43.58;98229.17;1770268;79;20998;-62
2021/06/01 09:01:42;;;;;;;3.60;1.20;;;;;;;15.77;43.10;98229.09;1771204;81;20875;-62
2021/06/01 09:04:11;;;;;;;2.62;1.30;;;;;;;15.74;43.08;98234.57;1724751;82;20949;-62
2021/06/01 09:06:53;;;;;;;5.47;1.50;;;;;;;15.65;42.78;98233.78;1730021;81;21564;-62
2021/06/01 09:09:40;;;;;;;2.98;1.10;;;;;;;15.56;42.97;98233.78;1727563;81;20979;-61
2021/06/01 09:23:00;;;;;;;3.22;1.40;;;;;;;15.95;41.93;98223.37;1724039;81;20932;-62
2021/06/01 09:25:46;;;;;;;5.65;1.30;;;;;;;16.19;41.55;98225.56;1723789;83;20991;-63
2021/06/01 09:28:13;;;;;;;3.98;1.37;;;;;;;16.26;41.64;98233.98;1723583;83;20896;-62
2021/06/01 09:30:46;;;;;;;3.62;1.10;;;;;;;16.19;41.81;98231.77;1723676;83;20924;-61
2021/06/01 09:33:24;;;;;;;5.67;1.30;;;;;;;16.12;41.80;98240.12;1723769;83;21112;-62
2021/06/01 09:35:56;;;;;;;2.35;1.12;;;;;;;16.08;41.54;98231.88;1723783;83;20940;-62
2021/06/01 09:38:43;;;;;;;2.22;1.20;;;;;;;16.17;41.77;98233.20;1752849;81;21066;-62
2021/06/01 09:41:18;;;;;;;3.95;1.30;;;;;;;16.26;41.07;98226.67;1752343;81;21097;-63
2021/06/01 09:44:00;;;;;;;7.92;1.40;;;;;;;16.36;40.97;98226.89;1720250;83;21510;-62
2021/06/01 09:46:38;;;;;;;4.60;1.30;;;;;;;16.41;40.16;98220.77;1733781;81;21076;-62
2021/06/01 09:49:20;;;;;;;4.90;1.45;;;;;;;16.47;40.05;98219.22;1749240;81;21362;-63
2021/06/01 09:52:07;;;;;;;3.22;1.30;;;;;;;16.50;39.94;98215.88;1752099;81;21653;-63
2021/06/01 09:54:45;;;;;;;2.83;1.20;;;;;;;16.46;39.34;98220.34;1743843;81;21141;-63
2021/06/01 09:57:23;;;;;;;3.20;1.17;;;;;;;16.33;40.51;98217.52;1722157;81;21083;-61
2021/06/01 10:00:16;;;;;;;1.82;1.05;;;;;;;16.23;40.46;98224.59;1723399;83;21094;-62
2021/06/01 10:02:54;;;;;;;1.70;1.02;;;;;;;16.12;39.95;98220.66;1723582;82;20936;-63
2021/06/01 10:05:28;;;;;;;2.47;1.25;;;;;;;16.00;40.79;98224.55;1723905;81;20924;-62
2021/06/01 10:07:57;;;;;;;2.93;1.20;;;;;;;15.88;40.14;98228.45;1723710;83;20881;-62
2021/06/01 10:10:31;;;;;;;4.05;1.30;;;;;;;15.86;39.87;98214.48;1722703;83;21323;-64
2021/06/01 10:13:08;;;;;;;2.75;0.93;;;;;;;16.07;41.01;98215.41;1741766;81;21657;-63
2021/06/01 10:15:37;;;;;;;4.97;1.20;;;;;;;16.39;39.93;98214.86;1724505;81;21180;-61
2021/06/01 10:18:11;;;;;;;8.87;1.20;;;;;;;16.50;40.03;98209.91;1740953;82;21005;-63
2021/06/01 10:20:39;;;;;;;3.85;1.27;;;;;;;16.52;38.10;98215.82;1719114;83;21041;-62
2021/06/01 10:23:07;;;;;;;2.87;1.30;;;;;;;16.40;38.36;98221.87;1741426;82;21086;-61
2021/06/01 10:25:35;;;;;;;4.15;1.20;;;;;;;16.37;38.64;98211.69;1741596;82;21069;-62
2021/06/01 10:28:08;;;;;;;4.15;1.25;;;;;;;16.46;39.71;98210.33;1735935;81;20938;-63
2021/06/01 10:30:39;;;;;;;3.17;1.22;;;;;;;16.60;39.61;98209.60;1752489;81;20934;-64
2021/06/01 10:33:10;;;;;;;3.85;1.37;;;;;;;16.75;38.94;98200.13;1727783;82;21013;-63
2021/06/01 10:35:41;;;;;;;1.35;1.10;;;;;;;16.82;39.06;98205.28;1749748;82;21006;-62
2021/06/01 10:42:33;;;;;;;3.35;0.95;;;;;;;17.05;37.33;98196.34;1727455;83;20958;-62
2021/06/01 10:50:31;;;;;;;5.97;1.15;;;;;;;17.23;36.59;98214.06;1726410;83;21025;-63
2021/06/01 10:53:19;;;;;;;3.35;0.93;;;;;;;16.95;36.67;98206.98;1747386;82;21670;-63
2021/06/01 10:55:55;;;;;;;4.87;1.30;;;;;;;16.75;37.36;98210.95;1740389;82;21578;-62
2021/06/01 10:58:29;;;;;;;4.25;1.05;;;;;;;16.67;37.11;98208.54;1753451;81;20881;-62
2021/06/01 11:04:28;;;;;;;5.55;1.10;;;;;;;16.75;36.99;98198.78;1737234;81;21469;-62
2021/06/01 11:09:47;;;;;;;2.45;0.98;;;;;;;17.05;37.17;98184.17;1739466;82;20991;-64
2021/06/01 11:12:22;;;;;;;4.33;1.10;;;;;;;17.32;35.93;98182.87;1778275;80;21517;-64
2021/06/01 11:14:51;;;;;;;2.00;1.10;;;;;;;17.56;35.98;98187.11;1761936;80;21134;-62
2021/06/01 11:17:36;;;;;;;2.10;1.10;;;;;;;17.80;37.11;98183.73;1753070;80;20959;-64
2021/06/01 11:20:22;;;;;;;1.82;1.10;;;;;;;17.94;35.11;98189.66;1731885;82;21126;-62
2021/06/01 11:22:55;;;;;;;1.75;1.10;;;;;;;17.78;36.61;98188.69;1746482;82;21000;-61
2021/06/01 11:33:39;;;;;;;;;;;;;;;17.50;37.46;98178.34;1720447;83;21036;-65
2021/06/01 11:36:15;;;;;;;5.05;1.30;;;;;;;17.62;38.21;98184.42;1749927;82;20146;-63
2021/06/01 11:44:01;;;;;;;3.00;0.95;;;;;;;17.81;36.31;98177.17;1730942;82;20862;-60
2021/06/01 11:46:41;;;;;;;4.58;1.20;;;;;;;17.92;35.97;98181.08;1767205;80;21728;-62
2021/06/01 11:51:47;;;;;;;4.50;1.10;;;;;;;18.00;36.95;98182.89;1748783;80;25065;-62
2021/06/01 11:54:16;;;;;;;6.28;1.30;;;;;;;18.07;37.07;98181.79;1747583;82;20904;-61
2021/06/01 11:57:19;;;;;;;4.08;1.30;;;;;;;18.04;35.49;98189.25;1747736;82;20888;-61
2021/06/01 12:05:20;;;;;;;4.45;1.22;;;;;;;18.53;36.08;98169.29;1729493;81;21030;-61
2021/06/01 12:13:45;;;;;;;2.62;1.17;;;;;;;18.65;35.25;98180.16;1725885;81;22021;-64
2021/06/01 12:18:49;;;;;;;2.65;1.10;;;;;;;18.43;35.40;98185.96;1723722;81;20991;-62
2021/06/01 12:21:22;;;;;;;4.78;1.10;;;;;;;18.28;35.39;98183.33;1722501;83;21015;-62
2021/06/01 12:24:03;;;;;;;2.98;1.10;;;;;;;18.04;35.06;98184.59;1726304;81;21077;-61
2021/06/01 12:32:01;;;;;;;2.60;1.02;;;;;;;17.53;35.99;98184.50;1722680;83;21019;-61
2021/06/01 12:34:48;;;;;;;4.25;1.17;;;;;;;17.52;36.02;98182.91;1752899;81;21030;-60
2021/06/01 12:45:01;;;;;;;4.47;1.20;;;;;;;19.29;34.77;98165.28;1723554;82;21162;-64
2021/06/01 13:05:32;;;;;;;4.05;1.05;;;;;;;19.50;34.54;98176.05;1746689;81;21699;-64
2021/06/01 13:12:20;;;;;;;6.00;1.12;;;;;;;18.71;36.50;98177.99;1750599;81;20869;-64
2021/06/01 13:20:30;;;;;;;3.90;0.80;;;;;;;19.51;34.30;98173.53;1723631;83;20896;-62
2021/06/01 13:31:22;;;;;;;4.55;1.10;;;;;;;21.23;33.60;98169.14;1707298;81;21494;-63
2021/06/01 13:36:28;;;;;;;3.50;1.10;;;;;;;21.76;32.89;98167.57;1750574;81;21523;-66
2021/06/01 13:38:57;;;;;;;2.22;1.02;;;;;;;21.74;31.51;98173.36;1649894;83;20938;-62
2021/06/01 13:47:01;;;;;;;5.12;1.40;;;;;;;20.43;32.45;98188.58;1729084;83;21469;-67
2021/06/01 13:49:46;;;;;;;6.80;1.12;;;;;;;20.04;33.91;98181.84;1733894;82;21321;-62
2021/06/01 13:55:14;;;;;;;2.30;1.20;;;;;;;19.49;34.39;98187.47;1725083;82;21589;-67
2021/06/01 13:58:00;;;;;;;2.35;0.90;;;;;;;19.29;34.98;98184.30;1746465;82;21041;-64
2021/06/01 14:00:33;;;;;;;5.35;1.15;;;;;;;19.35;34.54;98178.08;1725361;82;21221;-63
2021/06/01 14:09:27;;;;;;;4.40;1.05;;;;;;;20.01;33.67;98179.25;1717463;83;21007;-66
2021/06/01 14:30:13;;;;;;;4.20;1.20;;;;;;;18.97;34.62;98187.95;1748418;82;20961;-65
2021/06/01 15:11:18;;;;;;;3.27;1.27;;;;;;;17.43;39.74;98191.62;1745177;81;21410;-67
2021/06/01 16:11:28;;;;;;;5.20;1.37;;;;;;;16.61;43.35;98209.02;1843074;77;20929;-63
2021/06/01 16:30:07;;;;;;;5.92;1.00;;;;;;;16.47;43.36;98218.66;1758176;77;21758;-63
2021/06/01 16:32:54;;;;;;;3.62;1.12;;;;;;;16.33;43.26;98210.75;1816760;77;21469;-63
